createdAt,value
2022-10-30T00:00:16.421Z,100.00
2022-10-30T00:03:03.757Z,99.94
2022-10-30T00:05:31.558Z,99.65
2022-10-30T00:07:59.155Z,99.94
2022-10-30T00:10:26.220Z,100.00
2022-10-30T00:12:54.213Z,100.00
2022-10-30T00:15:21.015Z,100.00
2022-10-30T00:17:48.333Z,100.00
2022-10-30T00:20:15.221Z,100.00
2022-10-30T00:22:41.978Z,100.00
2022-10-30T00:25:09.159Z,100.00
2022-10-30T00:27:36.100Z,100.00
2022-10-30T00:30:03.099Z,100.00
2022-10-30T00:32:30.396Z,100.00
2022-10-30T00:34:57.406Z,100.00
2022-10-30T00:37:24.401Z,99.37
2022-10-30T00:39:51.412Z,99.51
2022-10-30T00:42:18.807Z,100.00
2022-10-30T00:44:48.191Z,100.00
2022-10-30T00:47:20.149Z,100.00
2022-10-30T00:49:51.856Z,100.00
2022-10-30T00:52:21.009Z,99.66
2022-10-30T00:54:48.182Z,99.39
2022-10-30T00:57:15.093Z,100.00
2022-10-30T00:59:42.727Z,100.00
2022-10-30T01:02:09.710Z,99.55
2022-10-30T01:04:38.037Z,99.16
2022-10-30T01:07:10.991Z,99.21
2022-10-30T01:09:39.033Z,99.53
2022-10-30T01:12:06.828Z,100.00
2022-10-30T01:14:36.873Z,99.40
2022-10-30T01:17:03.688Z,99.13
2022-10-30T01:19:39.975Z,99.79
2022-10-30T01:22:25.577Z,99.57
2022-10-30T01:25:04.576Z,99.01
2022-10-30T01:27:43.337Z,99.34
2022-10-30T01:30:35.842Z,98.56
2022-10-30T01:33:02.600Z,98.06
2022-10-30T01:35:32.482Z,98.42
2022-10-30T01:38:05.331Z,99.53
2022-10-30T01:40:33.198Z,98.97
2022-10-30T01:43:00.777Z,98.77
2022-10-30T01:45:27.664Z,98.55
2022-10-30T01:48:03.748Z,98.66
2022-10-30T01:50:38.840Z,98.22
2022-10-30T01:53:26.957Z,97.95
2022-10-30T01:56:02.308Z,97.85
2022-10-30T01:58:41.193Z,97.78
2022-10-30T02:01:08.285Z,97.97
2022-10-30T02:03:35.387Z,98.88
2022-10-30T02:06:02.256Z,98.31
2022-10-30T02:08:29.227Z,98.55
2022-10-30T02:10:56.582Z,98.97
2022-10-30T02:13:23.688Z,99.05
2022-10-30T02:15:51.076Z,98.47
2022-10-30T02:18:18.131Z,98.80
2022-10-30T02:20:45.102Z,98.06
2022-10-30T02:23:19.103Z,98.00
2022-10-30T02:25:46.320Z,98.48
2022-10-30T02:28:13.216Z,98.71
2022-10-30T02:30:41.190Z,99.01
2022-10-30T02:33:08.291Z,98.58
2022-10-30T02:35:35.469Z,97.77
2022-10-30T02:38:02.674Z,98.41
2022-10-30T02:40:29.967Z,97.89
2022-10-30T02:42:56.869Z,98.69
2022-10-30T02:45:23.852Z,99.73
2022-10-30T02:47:51.086Z,100.00
2022-10-30T02:50:18.131Z,100.00
2022-10-30T02:52:45.218Z,98.67
2022-10-30T02:55:12.260Z,98.36
2022-10-30T02:57:39.055Z,98.04
2022-10-30T03:00:06.446Z,98.05
2022-10-30T03:02:33.795Z,98.61
2022-10-30T03:05:00.657Z,99.27
2022-10-30T03:07:27.615Z,97.91
2022-10-30T03:09:55.074Z,98.13
2022-10-30T03:12:22.262Z,97.77
2022-10-30T03:14:49.252Z,97.80
2022-10-30T03:17:16.277Z,97.02
2022-10-30T03:19:43.143Z,96.85
2022-10-30T03:22:09.942Z,96.12
2022-10-30T03:24:38.375Z,96.37
2022-10-30T03:27:05.231Z,96.18
2022-10-30T03:29:32.091Z,94.79
2022-10-30T03:31:59.195Z,94.83
2022-10-30T03:34:27.626Z,95.20
2022-10-30T03:36:54.618Z,95.30
2022-10-30T03:39:21.743Z,96.24
2022-10-30T03:41:48.931Z,95.45
2022-10-30T03:44:15.874Z,94.82
2022-10-30T03:46:43.172Z,95.57
2022-10-30T03:49:09.967Z,95.71
2022-10-30T03:51:36.874Z,95.72
2022-10-30T03:54:03.978Z,96.75
2022-10-30T03:56:30.910Z,97.53
2022-10-30T03:58:57.803Z,99.98
2022-10-30T04:01:25.219Z,100.00
2022-10-30T04:03:52.236Z,100.00
2022-10-30T04:06:19.113Z,100.00
2022-10-30T04:08:46.317Z,100.00
2022-10-30T04:11:13.231Z,100.00
2022-10-30T04:13:40.337Z,100.00
2022-10-30T04:16:07.906Z,100.00
2022-10-30T04:18:34.872Z,100.00
2022-10-30T04:21:02.044Z,100.00
2022-10-30T04:23:29.043Z,100.00
2022-10-30T04:25:56.017Z,100.00
2022-10-30T04:28:23.362Z,100.00
2022-10-30T04:30:50.297Z,100.00
2022-10-30T04:33:17.298Z,99.68
2022-10-30T04:35:44.600Z,99.41
2022-10-30T04:38:13.108Z,100.00
2022-10-30T04:40:41.627Z,99.81
2022-10-30T04:43:09.234Z,99.81
2022-10-30T04:45:36.684Z,99.63
2022-10-30T04:48:05.112Z,99.24
2022-10-30T04:50:33.058Z,99.19
2022-10-30T04:53:00.913Z,100.00
2022-10-30T04:55:28.286Z,100.00
2022-10-30T04:57:56.371Z,99.98
2022-10-30T05:00:23.390Z,99.82
2022-10-30T05:02:50.415Z,99.14
2022-10-30T05:05:17.615Z,99.36
2022-10-30T05:07:44.402Z,98.94
2022-10-30T05:10:12.250Z,98.76
2022-10-30T05:12:39.358Z,98.89
2022-10-30T05:15:06.492Z,98.84
2022-10-30T05:17:33.513Z,99.13
2022-10-30T05:20:00.412Z,98.05
2022-10-30T05:22:27.444Z,97.38
2022-10-30T05:24:54.333Z,97.42
2022-10-30T05:27:21.387Z,97.75
2022-10-30T05:29:48.390Z,98.26
2022-10-30T05:32:15.223Z,99.93
2022-10-30T05:34:43.079Z,100.00
2022-10-30T05:37:09.935Z,100.00
2022-10-30T05:39:36.844Z,100.00
2022-10-30T05:42:06.574Z,100.00
2022-10-30T05:44:59.134Z,100.00
2022-10-30T05:47:22.544Z,100.00
2022-10-30T05:49:49.322Z,100.00
2022-10-30T05:52:16.365Z,100.00
2022-10-30T05:54:43.231Z,100.00
2022-10-30T05:57:10.181Z,100.00
2022-10-30T05:59:37.440Z,100.00
2022-10-30T06:02:04.452Z,100.00
2022-10-30T06:04:35.750Z,100.00
2022-10-30T06:07:02.727Z,100.00
2022-10-30T06:09:29.695Z,100.00
2022-10-30T06:11:58.699Z,100.00
2022-10-30T06:14:25.651Z,100.00
2022-10-30T06:16:52.783Z,100.00
2022-10-30T06:19:19.670Z,100.00
2022-10-30T06:21:46.915Z,100.00
2022-10-30T06:24:14.305Z,100.00
2022-10-30T06:26:41.517Z,100.00
2022-10-30T06:29:10.395Z,100.00
2022-10-30T06:31:37.616Z,100.00
2022-10-30T06:34:06.563Z,100.00
2022-10-30T06:36:33.969Z,100.00
2022-10-30T06:39:01.198Z,100.00
2022-10-30T06:41:30.467Z,100.00
2022-10-30T06:43:57.927Z,100.00
2022-10-30T06:46:28.830Z,100.00
2022-10-30T06:48:59.519Z,100.00
2022-10-30T06:51:27.184Z,100.00
2022-10-30T06:53:54.095Z,100.00
2022-10-30T06:56:21.016Z,100.00
2022-10-30T06:58:48.191Z,100.00
2022-10-30T07:01:15.108Z,100.00
2022-10-30T07:03:42.215Z,100.00
2022-10-30T07:06:09.376Z,100.00
2022-10-30T07:08:36.203Z,99.58
2022-10-30T07:11:03.163Z,99.27
2022-10-30T07:13:31.495Z,98.56
2022-10-30T07:15:58.885Z,97.40
2022-10-30T07:18:25.975Z,96.80
2022-10-30T07:20:56.681Z,96.85
2022-10-30T07:23:23.663Z,96.41
2022-10-30T07:25:51.696Z,95.95
2022-10-30T07:28:18.512Z,95.75
2022-10-30T07:30:45.491Z,95.55
2022-10-30T07:33:16.799Z,95.49
2022-10-30T07:35:43.632Z,95.28
2022-10-30T07:38:12.953Z,95.53
2022-10-30T07:40:42.731Z,95.36
2022-10-30T07:43:13.555Z,94.95
2022-10-30T07:45:40.354Z,94.47
2022-10-30T07:48:07.388Z,95.11
2022-10-30T07:50:34.284Z,95.08
2022-10-30T07:53:01.154Z,95.52
2022-10-30T07:55:28.260Z,96.01
2022-10-30T07:57:55.277Z,96.64
2022-10-30T08:00:22.714Z,95.43
2022-10-30T08:02:56.119Z,94.78
2022-10-30T08:05:27.135Z,93.75
2022-10-30T08:07:57.299Z,92.78
2022-10-30T08:10:24.527Z,92.43
2022-10-30T08:12:53.783Z,91.56
2022-10-30T08:15:20.680Z,91.82
2022-10-30T08:17:48.767Z,92.22
2022-10-30T08:20:17.082Z,91.51
2022-10-30T08:22:48.427Z,90.90
2022-10-30T08:25:17.291Z,90.79
2022-10-30T08:27:52.001Z,91.06
2022-10-30T08:30:19.442Z,91.00
2022-10-30T08:32:46.925Z,89.90
2022-10-30T08:35:18.704Z,88.71
2022-10-30T08:37:47.029Z,88.22
2022-10-30T08:40:14.373Z,88.66
2022-10-30T08:42:41.298Z,88.90
2022-10-30T08:45:08.766Z,87.96
2022-10-30T08:47:35.694Z,87.16
2022-10-30T08:50:03.188Z,87.52
2022-10-30T08:52:30.835Z,87.65
2022-10-30T08:54:57.937Z,87.23
2022-10-30T08:57:24.743Z,86.78
2022-10-30T08:59:51.836Z,85.80
2022-10-30T09:02:18.891Z,85.66
2022-10-30T09:04:45.935Z,85.16
2022-10-30T09:07:13.293Z,84.46
2022-10-30T09:09:40.204Z,84.03
2022-10-30T09:12:07.333Z,82.35
2022-10-30T09:14:37.781Z,84.11
2022-10-30T09:17:04.712Z,83.62
2022-10-30T09:19:31.691Z,83.20
2022-10-30T09:21:59.012Z,82.17
2022-10-30T09:24:26.004Z,83.68
2022-10-30T09:26:55.326Z,83.37
2022-10-30T09:29:22.296Z,82.40
2022-10-30T09:31:49.189Z,81.07
2022-10-30T09:34:16.342Z,80.30
2022-10-30T09:36:47.749Z,78.94
2022-10-30T09:39:14.958Z,77.68
2022-10-30T09:42:00.696Z,76.96
2022-10-30T09:45:15.182Z,77.08
2022-10-30T09:48:01.967Z,76.42
2022-10-30T09:50:35.728Z,75.75
2022-10-30T09:53:05.976Z,76.25
2022-10-30T09:55:51.395Z,76.30
2022-10-30T09:58:30.681Z,77.42
2022-10-30T10:01:07.514Z,78.34
2022-10-30T10:03:53.598Z,79.33
2022-10-30T10:06:21.220Z,79.36
2022-10-30T10:08:50.980Z,79.13
2022-10-30T10:11:22.441Z,78.07
2022-10-30T10:13:55.992Z,77.44
2022-10-30T10:16:36.823Z,76.72
2022-10-30T10:19:26.344Z,77.21
2022-10-30T10:21:53.207Z,76.97
2022-10-30T10:24:22.587Z,76.60
2022-10-30T10:26:52.328Z,74.80
2022-10-30T10:29:39.772Z,73.55
2022-10-30T10:32:08.401Z,74.79
2022-10-30T10:34:54.065Z,75.07
2022-10-30T10:37:30.288Z,73.65
2022-10-30T10:40:06.657Z,72.92
2022-10-30T10:42:52.632Z,72.57
2022-10-30T10:45:24.395Z,71.68
2022-10-30T10:48:10.522Z,71.56
2022-10-30T10:50:42.752Z,71.37
2022-10-30T10:53:28.632Z,71.66
2022-10-30T10:55:58.754Z,71.29
2022-10-30T10:58:34.777Z,70.73
2022-10-30T11:01:02.427Z,69.90
2022-10-30T11:03:34.852Z,69.91
2022-10-30T11:06:20.447Z,70.24
2022-10-30T11:08:48.118Z,70.95
2022-10-30T11:11:15.619Z,71.36
2022-10-30T11:13:45.574Z,72.14
2022-10-30T11:16:31.806Z,73.63
2022-10-30T11:19:01.120Z,73.84
2022-10-30T11:21:29.456Z,72.69
2022-10-30T11:23:56.712Z,72.40
2022-10-30T11:26:26.752Z,71.77
2022-10-30T11:29:03.931Z,70.97
2022-10-30T11:31:37.988Z,71.06
2022-10-30T11:34:13.927Z,71.55
2022-10-30T11:36:41.339Z,71.08
2022-10-30T11:39:18.522Z,70.90
2022-10-30T11:42:21.003Z,69.80
2022-10-30T11:44:51.524Z,70.41
2022-10-30T11:47:21.853Z,70.44
2022-10-30T11:49:51.859Z,70.00
2022-10-30T11:52:20.644Z,71.08
2022-10-30T11:54:51.264Z,70.62
2022-10-30T11:57:36.089Z,71.43
2022-10-30T12:00:05.896Z,71.73
2022-10-30T12:02:41.025Z,71.06
2022-10-30T12:05:34.692Z,71.71
2022-10-30T12:08:08.226Z,71.64
2022-10-30T12:10:38.744Z,70.74
2022-10-30T12:13:06.591Z,70.36
2022-10-30T12:15:37.381Z,70.80
2022-10-30T12:18:06.336Z,71.02
2022-10-30T12:20:36.371Z,71.81
2022-10-30T12:23:17.091Z,71.22
2022-10-30T12:25:47.859Z,71.42
2022-10-30T12:28:17.388Z,71.92
2022-10-30T12:31:04.730Z,71.16
2022-10-30T12:33:37.720Z,71.53
2022-10-30T12:36:14.391Z,71.02
2022-10-30T12:38:41.165Z,70.66
2022-10-30T12:41:20.428Z,71.16
2022-10-30T12:43:52.696Z,71.61
2022-10-30T12:46:22.762Z,72.06
2022-10-30T12:49:12.666Z,72.31
2022-10-30T12:51:43.303Z,72.53
2022-10-30T12:54:12.939Z,72.10
2022-10-30T12:56:43.246Z,72.65
2022-10-30T12:59:10.080Z,71.88
2022-10-30T13:01:56.521Z,71.97
2022-10-30T13:04:25.921Z,71.18
2022-10-30T13:07:13.564Z,70.78
2022-10-30T13:09:44.036Z,70.02
2022-10-30T13:12:24.004Z,70.08
2022-10-30T13:15:14.192Z,70.11
2022-10-30T13:17:41.315Z,69.92
2022-10-30T13:20:12.716Z,70.11
2022-10-30T13:23:03.159Z,70.51
2022-10-30T13:25:59.544Z,69.12
2022-10-30T13:28:28.738Z,69.74
2022-10-30T13:31:28.227Z,69.85
2022-10-30T13:34:01.205Z,69.64
2022-10-30T13:36:50.802Z,69.01
2022-10-30T13:39:20.969Z,69.16
2022-10-30T13:41:59.842Z,69.86
2022-10-30T13:44:30.119Z,70.69
2022-10-30T13:47:15.324Z,71.51
2022-10-30T13:50:01.109Z,71.51
2022-10-30T13:52:30.297Z,71.73
2022-10-30T13:55:01.643Z,71.87
2022-10-30T13:57:37.512Z,71.97
2022-10-30T14:00:16.989Z,71.99
2022-10-30T14:02:50.228Z,72.06
2022-10-30T14:05:31.515Z,70.96
2022-10-30T14:08:05.297Z,70.65
2022-10-30T14:10:53.366Z,70.92
2022-10-30T14:13:29.038Z,71.14
2022-10-30T14:16:06.588Z,72.19
2022-10-30T14:18:44.227Z,71.72
2022-10-30T14:21:32.217Z,71.76
2022-10-30T14:24:19.342Z,71.67
2022-10-30T14:26:50.097Z,71.87
2022-10-30T14:29:34.856Z,71.94
2022-10-30T14:32:03.532Z,72.58
2022-10-30T14:34:49.177Z,72.44
2022-10-30T14:37:19.120Z,72.78
2022-10-30T14:39:46.583Z,73.32
2022-10-30T14:42:14.047Z,73.56
2022-10-30T14:44:47.049Z,74.08
2022-10-30T14:47:36.955Z,74.77
2022-10-30T14:50:24.122Z,75.10
2022-10-30T14:52:53.115Z,74.68
2022-10-30T14:55:29.299Z,75.38
2022-10-30T14:58:02.368Z,76.38
2022-10-30T15:00:35.449Z,77.48
2022-10-30T15:03:19.024Z,78.71
2022-10-30T15:05:58.827Z,79.47
2022-10-30T15:08:29.205Z,78.93
2022-10-30T15:11:02.299Z,79.42
2022-10-30T15:13:29.652Z,79.69
2022-10-30T15:16:04.844Z,81.08
2022-10-30T15:18:32.236Z,81.91
2022-10-30T15:21:03.427Z,82.44
2022-10-30T15:23:33.107Z,83.02
2022-10-30T15:26:08.105Z,83.78
2022-10-30T15:28:37.202Z,85.82
2022-10-30T15:31:05.507Z,86.91
2022-10-30T15:33:35.454Z,86.85
2022-10-30T15:36:02.923Z,87.28
2022-10-30T15:38:29.855Z,87.81
2022-10-30T15:40:58.724Z,88.54
2022-10-30T15:43:37.887Z,89.87
2022-10-30T15:46:09.332Z,90.26
2022-10-30T15:48:38.337Z,90.76
2022-10-30T15:51:07.260Z,90.78
2022-10-30T15:53:34.102Z,90.95
2022-10-30T15:56:01.136Z,91.78
2022-10-30T15:58:28.252Z,92.06
2022-10-30T16:00:59.243Z,92.57
2022-10-30T16:03:27.103Z,93.37
2022-10-30T16:06:16.168Z,93.66
2022-10-30T16:08:47.460Z,92.98
2022-10-30T16:11:15.598Z,91.50
2022-10-30T16:13:43.065Z,91.02
2022-10-30T16:16:30.373Z,91.19
2022-10-30T16:19:02.787Z,93.24
2022-10-30T16:21:31.218Z,94.22
2022-10-30T16:24:01.426Z,94.98
2022-10-30T16:26:36.238Z,95.29
2022-10-30T16:29:11.428Z,95.60
2022-10-30T16:31:38.674Z,96.72
2022-10-30T16:34:09.340Z,96.26
2022-10-30T16:36:36.927Z,96.98
2022-10-30T16:39:04.239Z,96.91
2022-10-30T16:41:31.776Z,97.34
2022-10-30T16:44:25.174Z,96.60
2022-10-30T16:47:01.007Z,95.73
2022-10-30T16:49:29.808Z,96.42
2022-10-30T16:51:59.327Z,96.54
2022-10-30T16:54:28.548Z,96.16
2022-10-30T16:56:58.355Z,96.65
2022-10-30T16:59:37.520Z,97.12
2022-10-30T17:02:14.187Z,97.99
2022-10-30T17:04:42.899Z,95.69
2022-10-30T17:07:17.513Z,94.16
2022-10-30T17:09:45.342Z,94.59
2022-10-30T17:12:14.823Z,94.53
2022-10-30T17:14:49.399Z,93.65
2022-10-30T17:17:21.747Z,94.76
2022-10-30T17:19:49.815Z,95.36
2022-10-30T17:22:19.654Z,95.36
2022-10-30T17:24:47.839Z,95.72
2022-10-30T17:27:31.142Z,96.31
2022-10-30T17:29:58.085Z,93.57
2022-10-30T17:32:26.690Z,92.38
2022-10-30T17:35:12.459Z,92.60
2022-10-30T17:37:39.607Z,92.56
2022-10-30T17:40:06.713Z,92.85
2022-10-30T17:42:34.135Z,92.78
2022-10-30T17:45:01.092Z,93.00
2022-10-30T17:47:28.716Z,94.05
2022-10-30T17:49:55.620Z,93.25
2022-10-30T17:52:22.800Z,93.92
2022-10-30T17:54:49.787Z,93.82
2022-10-30T17:57:16.994Z,93.92
2022-10-30T17:59:43.878Z,93.81
2022-10-30T18:02:18.433Z,94.71
2022-10-30T18:04:45.804Z,94.22
2022-10-30T18:07:13.708Z,93.74
2022-10-30T18:09:41.116Z,94.02
2022-10-30T18:12:11.655Z,93.97
2022-10-30T18:14:38.806Z,93.73
2022-10-30T18:17:05.862Z,93.44
2022-10-30T18:19:33.336Z,92.95
2022-10-30T18:22:00.197Z,93.02
2022-10-30T18:24:27.311Z,93.32
2022-10-30T18:26:54.960Z,93.18
2022-10-30T18:29:21.816Z,93.85
2022-10-30T18:31:49.277Z,93.50
2022-10-30T18:34:17.358Z,92.86
2022-10-30T18:36:44.363Z,92.48
2022-10-30T18:39:13.229Z,92.46
2022-10-30T18:41:42.345Z,93.08
2022-10-30T18:44:18.748Z,93.29
2022-10-30T18:46:45.837Z,93.46
2022-10-30T18:49:13.380Z,93.30
2022-10-30T18:51:40.325Z,94.59
2022-10-30T18:54:14.182Z,94.41
2022-10-30T18:56:43.509Z,94.34
2022-10-30T18:59:11.019Z,96.63
2022-10-30T19:01:38.366Z,96.95
2022-10-30T19:04:09.695Z,96.30
2022-10-30T19:06:38.879Z,94.95
2022-10-30T19:09:06.412Z,94.79
2022-10-30T19:11:33.397Z,95.47
2022-10-30T19:14:00.686Z,96.98
2022-10-30T19:16:28.067Z,97.71
2022-10-30T19:18:55.173Z,96.19
2022-10-30T19:21:24.914Z,94.11
2022-10-30T19:23:52.161Z,94.64
2022-10-30T19:26:19.344Z,93.59
2022-10-30T19:28:46.747Z,93.88
2022-10-30T19:31:14.794Z,94.36
2022-10-30T19:33:42.345Z,94.93
2022-10-30T19:36:24.587Z,95.41
2022-10-30T19:38:51.534Z,96.61
2022-10-30T19:41:18.831Z,98.95
2022-10-30T19:43:46.375Z,98.44
2022-10-30T19:46:14.923Z,97.34
2022-10-30T19:48:58.955Z,96.45
2022-10-30T19:51:30.232Z,97.83
2022-10-30T19:53:57.112Z,98.48
2022-10-30T19:56:24.265Z,98.65
2022-10-30T19:58:52.100Z,99.42
2022-10-30T20:01:19.606Z,98.54
2022-10-30T20:03:46.613Z,97.61
2022-10-30T20:06:14.402Z,96.04
2022-10-30T20:08:41.881Z,94.99
2022-10-30T20:11:09.506Z,95.65
2022-10-30T20:13:37.361Z,94.66
2022-10-30T20:16:05.831Z,95.63
2022-10-30T20:18:34.568Z,94.74
2022-10-30T20:21:03.068Z,94.51
2022-10-30T20:23:30.445Z,94.70
2022-10-30T20:26:01.724Z,96.85
2022-10-30T20:28:39.559Z,94.58
2022-10-30T20:31:07.644Z,95.56
2022-10-30T20:33:34.771Z,96.20
2022-10-30T20:36:02.204Z,95.33
2022-10-30T20:38:33.366Z,95.98
2022-10-30T20:41:01.020Z,95.84
2022-10-30T20:43:32.921Z,95.44
2022-10-30T20:46:00.849Z,95.53
2022-10-30T20:48:28.232Z,94.93
2022-10-30T20:50:59.611Z,94.07
2022-10-30T20:53:26.880Z,94.41
2022-10-30T20:55:53.898Z,94.51
2022-10-30T20:58:21.038Z,95.97
2022-10-30T21:00:47.979Z,95.25
2022-10-30T21:03:15.111Z,95.09
2022-10-30T21:05:44.607Z,94.58
2022-10-30T21:08:13.014Z,94.72
2022-10-30T21:10:40.543Z,95.33
2022-10-30T21:13:09.685Z,96.62
2022-10-30T21:15:41.412Z,98.35
2022-10-30T21:18:09.109Z,98.23
2022-10-30T21:20:37.077Z,98.10
2022-10-30T21:23:04.372Z,98.13
2022-10-30T21:25:32.671Z,97.29
2022-10-30T21:28:01.792Z,98.38
2022-10-30T21:30:28.597Z,97.85
2022-10-30T21:32:55.784Z,96.96
2022-10-30T21:35:22.660Z,96.62
2022-10-30T21:37:49.694Z,95.51
2022-10-30T21:40:16.925Z,94.58
2022-10-30T21:42:43.800Z,94.82
2022-10-30T21:45:10.841Z,94.16
2022-10-30T21:47:38.003Z,94.91
2022-10-30T21:50:07.785Z,95.11
2022-10-30T21:52:36.460Z,94.42
2022-10-30T21:55:03.480Z,93.79
2022-10-30T21:57:30.367Z,94.26
2022-10-30T22:00:00.024Z,94.09
2022-10-30T22:02:30.510Z,93.66
2022-10-30T22:04:57.641Z,93.73
2022-10-30T22:07:24.527Z,93.94
2022-10-30T22:09:51.487Z,94.71
2022-10-30T22:12:18.574Z,95.31
2022-10-30T22:14:45.436Z,93.90
2022-10-30T22:17:13.039Z,94.61
2022-10-30T22:19:40.301Z,93.82
2022-10-30T22:22:07.270Z,94.62
2022-10-30T22:24:34.085Z,94.37
2022-10-30T22:27:01.170Z,94.47
2022-10-30T22:29:28.070Z,93.90
2022-10-30T22:31:54.941Z,93.28
2022-10-30T22:34:21.970Z,93.96
2022-10-30T22:36:48.831Z,94.30
2022-10-30T22:39:15.676Z,93.80
2022-10-30T22:41:42.823Z,94.88
2022-10-30T22:44:13.781Z,94.67
2022-10-30T22:46:40.803Z,95.28
2022-10-30T22:49:08.048Z,95.36
2022-10-30T22:51:35.792Z,93.96
2022-10-30T22:54:03.886Z,96.13
2022-10-30T22:56:32.027Z,96.31
2022-10-30T22:59:01.003Z,96.34
2022-10-30T23:01:29.248Z,96.51
2022-10-30T23:03:57.274Z,95.50
2022-10-30T23:06:24.944Z,94.79
2022-10-30T23:08:53.255Z,95.14
2022-10-30T23:11:20.622Z,94.46
2022-10-30T23:13:48.101Z,95.04
2022-10-30T23:16:16.651Z,95.35
2022-10-30T23:18:44.467Z,95.68
2022-10-30T23:21:14.365Z,95.02
2022-10-30T23:23:42.803Z,95.05
2022-10-30T23:26:11.295Z,95.21
2022-10-30T23:28:38.399Z,94.45
2022-10-30T23:31:16.599Z,94.42
2022-10-30T23:33:46.099Z,93.88
2022-10-30T23:36:13.175Z,94.67
2022-10-30T23:38:40.351Z,93.94
2022-10-30T23:41:07.143Z,93.18
2022-10-30T23:43:34.164Z,93.87
2022-10-30T23:46:01.053Z,92.58
2022-10-30T23:48:28.152Z,93.42
2022-10-30T23:50:55.059Z,93.32
2022-10-30T23:53:22.348Z,93.57
2022-10-30T23:55:52.945Z,94.31
2022-10-30T23:58:20.667Z,94.44
